sensor_id;sensor_type;location;lat;lon;timestamp;P1;durP1;ratioP1;P2;durP2;ratioP2
29854;SDS011;16733;48.738;9.106;2023-03-01T00:00:27;15.82;;;7.68;;
29854;SDS011;16733;48.738;9.106;2023-03-01T00:02:52;10.35;;;6.25;;
29854;SDS011;16733;48.738;9.106;2023-03-01T00:05:18;11.40;;;6.25;;
29854;SDS011;16733;48.738;9.106;2023-03-01T00:07:43;16.25;;;6.57;;
29854;SDS011;16733;48.738;9.106;2023-03-01T00:10:09;11.93;;;6.43;;
29854;SDS011;16733;48.738;9.106;2023-03-01T00:12:35;12.45;;;7.22;;
29854;SDS011;16733;48.738;9.106;2023-03-01T00:15:01;19.20;;;7.43;;
29854;SDS011;16733;48.738;9.106;2023-03-01T00:17:29;15.75;;;6.50;;
29854;SDS011;16733;48.738;9.106;2023-03-01T00:19:55;13.65;;;6.03;;
29854;SDS011;16733;48.738;9.106;2023-03-01T00:22:20;10.85;;;5.80;;
29854;SDS011;16733;48.738;9.106;2023-03-01T00:24:46;12.52;;;5.32;;
29854;SDS011;16733;48.738;9.106;2023-03-01T00:27:11;11.90;;;6.72;;
29854;SDS011;16733;48.738;9.106;2023-03-01T00:29:37;13.55;;;5.65;;
29854;SDS011;16733;48.738;9.106;2023-03-01T00:32:03;12.02;;;6.20;;
29854;SDS011;16733;48.738;9.106;2023-03-01T00:34:28;11.68;;;5.75;;
29854;SDS011;16733;48.738;9.106;2023-03-01T00:36:54;13.80;;;6.43;;
29854;SDS011;16733;48.738;9.106;2023-03-01T00:39:20;15.65;;;6.55;;
29854;SDS011;16733;48.738;9.106;2023-03-01T00:41:45;14.68;;;6.80;;
29854;SDS011;16733;48.738;9.106;2023-03-01T00:44:11;16.42;;;6.75;;
29854;SDS011;16733;48.738;9.106;2023-03-01T00:46:36;13.60;;;6.03;;
29854;SDS011;16733;48.738;9.106;2023-03-01T00:49:02;12.25;;;5.93;;
29854;SDS011;16733;48.738;9.106;2023-03-01T00:51:29;15.70;;;5.53;;
29854;SDS011;16733;48.738;9.106;2023-03-01T00:53:57;12.82;;;6.25;;
29854;SDS011;16733;48.738;9.106;2023-03-01T00:56:25;14.35;;;6.30;;
29854;SDS011;16733;48.738;9.106;2023-03-01T00:58:51;16.13;;;6.80;;
29854;SDS011;16733;48.738;9.106;2023-03-01T01:01:35;12.15;;;6.05;;
29854;SDS011;16733;48.738;9.106;2023-03-01T01:04:02;8.30;;;5.78;;
29854;SDS011;16733;48.738;9.106;2023-03-01T01:06:33;11.23;;;5.32;;
29854;SDS011;16733;48.738;9.106;2023-03-01T01:09:02;12.57;;;5.75;;
29854;SDS011;16733;48.738;9.106;2023-03-01T01:11:29;13.25;;;5.90;;
29854;SDS011;16733;48.738;9.106;2023-03-01T01:13:55;11.75;;;6.40;;
29854;SDS011;16733;48.738;9.106;2023-03-01T01:16:22;13.55;;;6.43;;
29854;SDS011;16733;48.738;9.106;2023-03-01T01:18:49;16.52;;;7.25;;
29854;SDS011;16733;48.738;9.106;2023-03-01T01:21:16;17.13;;;6.35;;
29854;SDS011;16733;48.738;9.106;2023-03-01T01:23:43;13.05;;;6.32;;
29854;SDS011;16733;48.738;9.106;2023-03-01T01:26:11;10.98;;;6.10;;
29854;SDS011;16733;48.738;9.106;2023-03-01T01:28:39;12.80;;;6.53;;
29854;SDS011;16733;48.738;9.106;2023-03-01T01:31:05;13.27;;;6.05;;
29854;SDS011;16733;48.738;9.106;2023-03-01T01:33:31;12.60;;;6.50;;
29854;SDS011;16733;48.738;9.106;2023-03-01T01:35:57;12.00;;;6.20;;
29854;SDS011;16733;48.738;9.106;2023-03-01T01:38:23;16.85;;;6.50;;
29854;SDS011;16733;48.738;9.106;2023-03-01T01:40:48;15.68;;;5.97;;
29854;SDS011;16733;48.738;9.106;2023-03-01T01:43:22;11.18;;;6.15;;
29854;SDS011;16733;48.738;9.106;2023-03-01T01:45:49;14.90;;;5.93;;
29854;SDS011;16733;48.738;9.106;2023-03-01T01:48:20;9.00;;;5.32;;
29854;SDS011;16733;48.738;9.106;2023-03-01T01:50:51;9.32;;;5.30;;
29854;SDS011;16733;48.738;9.106;2023-03-01T01:53:21;13.20;;;7.07;;
29854;SDS011;16733;48.738;9.106;2023-03-01T01:55:53;16.13;;;5.95;;
29854;SDS011;16733;48.738;9.106;2023-03-01T01:58:23;12.38;;;5.97;;
29854;SDS011;16733;48.738;9.106;2023-03-01T02:00:51;17.08;;;6.50;;
29854;SDS011;16733;48.738;9.106;2023-03-01T02:03:18;11.48;;;6.00;;
29854;SDS011;16733;48.738;9.106;2023-03-01T02:08:17;13.20;;;7.22;;
29854;SDS011;16733;48.738;9.106;2023-03-01T02:10:44;15.45;;;8.15;;
29854;SDS011;16733;48.738;9.106;2023-03-01T02:13:11;27.40;;;6.88;;
29854;SDS011;16733;48.738;9.106;2023-03-01T02:15:38;14.23;;;6.47;;
29854;SDS011;16733;48.738;9.106;2023-03-01T02:18:05;13.38;;;6.68;;
29854;SDS011;16733;48.738;9.106;2023-03-01T02:20:40;12.95;;;7.13;;
29854;SDS011;16733;48.738;9.106;2023-03-01T02:23:15;14.85;;;6.78;;
29854;SDS011;16733;48.738;9.106;2023-03-01T02:25:51;16.45;;;7.60;;
29854;SDS011;16733;48.738;9.106;2023-03-01T02:28:23;14.55;;;6.65;;
29854;SDS011;16733;48.738;9.106;2023-03-01T02:30:49;19.35;;;7.75;;
29854;SDS011;16733;48.738;9.106;2023-03-01T02:33:35;13.00;;;7.07;;
29854;SDS011;16733;48.738;9.106;2023-03-01T02:42:31;16.90;;;7.97;;
29854;SDS011;16733;48.738;9.106;2023-03-01T02:45:00;22.88;;;8.13;;
29854;SDS011;16733;48.738;9.106;2023-03-01T02:47:25;14.65;;;7.22;;
29854;SDS011;16733;48.738;9.106;2023-03-01T02:49:51;18.40;;;8.35;;
29854;SDS011;16733;48.738;9.106;2023-03-01T02:57:26;16.55;;;8.88;;
29854;SDS011;16733;48.738;9.106;2023-03-01T02:59:54;17.88;;;7.82;;
29854;SDS011;16733;48.738;9.106;2023-03-01T03:02:25;15.55;;;7.95;;
29854;SDS011;16733;48.738;9.106;2023-03-01T03:05:09;15.48;;;7.93;;
29854;SDS011;16733;48.738;9.106;2023-03-01T03:07:55;11.05;;;6.55;;
29854;SDS011;16733;48.738;9.106;2023-03-01T03:10:23;16.40;;;8.07;;
29854;SDS011;16733;48.738;9.106;2023-03-01T03:12:54;14.98;;;7.72;;
29854;SDS011;16733;48.738;9.106;2023-03-01T03:15:21;19.58;;;7.53;;
29854;SDS011;16733;48.738;9.106;2023-03-01T03:17:47;15.05;;;8.00;;
29854;SDS011;16733;48.738;9.106;2023-03-01T03:20:15;16.42;;;7.40;;
29854;SDS011;16733;48.738;9.106;2023-03-01T03:22:44;14.40;;;8.10;;
29854;SDS011;16733;48.738;9.106;2023-03-01T03:25:12;19.35;;;8.18;;
29854;SDS011;16733;48.738;9.106;2023-03-01T03:27:38;17.55;;;8.43;;
29854;SDS011;16733;48.738;9.106;2023-03-01T03:30:05;18.27;;;7.90;;
29854;SDS011;16733;48.738;9.106;2023-03-01T03:32:35;15.38;;;7.63;;
29854;SDS011;16733;48.738;9.106;2023-03-01T03:35:01;18.02;;;8.48;;
29854;SDS011;16733;48.738;9.106;2023-03-01T03:37:33;18.40;;;7.82;;
29854;SDS011;16733;48.738;9.106;2023-03-01T03:40:18;18.02;;;8.55;;
29854;SDS011;16733;48.738;9.106;2023-03-01T03:42:43;17.13;;;8.10;;
29854;SDS011;16733;48.738;9.106;2023-03-01T03:45:09;18.35;;;8.68;;
29854;SDS011;16733;48.738;9.106;2023-03-01T03:47:34;17.13;;;8.57;;
29854;SDS011;16733;48.738;9.106;2023-03-01T03:50:00;17.10;;;8.70;;
29854;SDS011;16733;48.738;9.106;2023-03-01T03:52:25;18.27;;;8.40;;
29854;SDS011;16733;48.738;9.106;2023-03-01T03:54:51;20.42;;;8.25;;
29854;SDS011;16733;48.738;9.106;2023-03-01T03:57:16;22.10;;;9.05;;
29854;SDS011;16733;48.738;9.106;2023-03-01T03:59:42;16.67;;;8.70;;
29854;SDS011;16733;48.738;9.106;2023-03-01T04:02:08;15.80;;;7.85;;
29854;SDS011;16733;48.738;9.106;2023-03-01T04:04:33;17.52;;;9.13;;
29854;SDS011;16733;48.738;9.106;2023-03-01T04:06:59;15.82;;;7.95;;
29854;SDS011;16733;48.738;9.106;2023-03-01T04:09:24;14.35;;;7.60;;
29854;SDS011;16733;48.738;9.106;2023-03-01T04:11:50;20.05;;;9.18;;
29854;SDS011;16733;48.738;9.106;2023-03-01T04:14:16;21.48;;;8.38;;
29854;SDS011;16733;48.738;9.106;2023-03-01T04:16:42;18.75;;;8.63;;
29854;SDS011;16733;48.738;9.106;2023-03-01T04:19:07;15.85;;;7.75;;
29854;SDS011;16733;48.738;9.106;2023-03-01T04:21:34;15.98;;;7.60;;
29854;SDS011;16733;48.738;9.106;2023-03-01T04:24:01;22.75;;;8.57;;
29854;SDS011;16733;48.738;9.106;2023-03-01T04:26:28;17.83;;;8.18;;
29854;SDS011;16733;48.738;9.106;2023-03-01T04:28:54;20.65;;;8.07;;
29854;SDS011;16733;48.738;9.106;2023-03-01T04:31:20;19.23;;;8.45;;
29854;SDS011;16733;48.738;9.106;2023-03-01T04:36:22;20.00;;;8.90;;
29854;SDS011;16733;48.738;9.106;2023-03-01T04:38:49;19.33;;;8.60;;
29854;SDS011;16733;48.738;9.106;2023-03-01T04:41:18;15.63;;;8.25;;
29854;SDS011;16733;48.738;9.106;2023-03-01T04:43:45;18.10;;;8.98;;
29854;SDS011;16733;48.738;9.106;2023-03-01T04:46:12;20.83;;;8.25;;
29854;SDS011;16733;48.738;9.106;2023-03-01T04:48:39;17.33;;;8.50;;
29854;SDS011;16733;48.738;9.106;2023-03-01T04:51:07;15.93;;;8.00;;
29854;SDS011;16733;48.738;9.106;2023-03-01T04:53:33;17.20;;;8.25;;
29854;SDS011;16733;48.738;9.106;2023-03-01T04:56:01;16.83;;;8.00;;
29854;SDS011;16733;48.738;9.106;2023-03-01T04:58:29;23.75;;;9.05;;
29854;SDS011;16733;48.738;9.106;2023-03-01T05:00:55;20.20;;;8.40;;
29854;SDS011;16733;48.738;9.106;2023-03-01T05:03:20;18.65;;;8.32;;
29854;SDS011;16733;48.738;9.106;2023-03-01T05:05:47;15.18;;;8.57;;
29854;SDS011;16733;48.738;9.106;2023-03-01T05:08:15;18.80;;;9.70;;
29854;SDS011;16733;48.738;9.106;2023-03-01T05:10:49;17.95;;;9.48;;
29854;SDS011;16733;48.738;9.106;2023-03-01T05:13:16;17.48;;;9.13;;
29854;SDS011;16733;48.738;9.106;2023-03-01T05:15:55;18.35;;;8.70;;
29854;SDS011;16733;48.738;9.106;2023-03-01T05:18:23;16.73;;;7.18;;
29854;SDS011;16733;48.738;9.106;2023-03-01T05:20:55;18.05;;;8.10;;
29854;SDS011;16733;48.738;9.106;2023-03-01T05:23:25;18.77;;;9.07;;
29854;SDS011;16733;48.738;9.106;2023-03-01T05:25:51;15.98;;;8.18;;
29854;SDS011;16733;48.738;9.106;2023-03-01T05:28:17;21.30;;;8.63;;
29854;SDS011;16733;48.738;9.106;2023-03-01T05:30:44;18.80;;;8.55;;
29854;SDS011;16733;48.738;9.106;2023-03-01T05:33:10;20.88;;;9.68;;
29854;SDS011;16733;48.738;9.106;2023-03-01T05:35:38;22.15;;;9.30;;
29854;SDS011;16733;48.738;9.106;2023-03-01T05:38:08;17.25;;;8.18;;
29854;SDS011;16733;48.738;9.106;2023-03-01T05:40:38;19.27;;;9.20;;
29854;SDS011;16733;48.738;9.106;2023-03-01T05:43:04;19.02;;;9.70;;
29854;SDS011;16733;48.738;9.106;2023-03-01T05:45:30;21.90;;;10.25;;
29854;SDS011;16733;48.738;9.106;2023-03-01T05:47:59;18.08;;;9.35;;
29854;SDS011;16733;48.738;9.106;2023-03-01T05:50:26;19.48;;;9.25;;
29854;SDS011;16733;48.738;9.106;2023-03-01T05:52:58;17.42;;;9.50;;
29854;SDS011;16733;48.738;9.106;2023-03-01T05:55:29;19.85;;;9.35;;
29854;SDS011;16733;48.738;9.106;2023-03-01T05:57:57;18.92;;;9.45;;
29854;SDS011;16733;48.738;9.106;2023-03-01T06:00:27;24.58;;;9.85;;
29854;SDS011;16733;48.738;9.106;2023-03-01T06:02:54;24.00;;;9.90;;
29854;SDS011;16733;48.738;9.106;2023-03-01T06:05:21;15.85;;;8.43;;
29854;SDS011;16733;48.738;9.106;2023-03-01T06:07:47;18.75;;;9.35;;
29854;SDS011;16733;48.738;9.106;2023-03-01T06:10:14;22.33;;;10.55;;
29854;SDS011;16733;48.738;9.106;2023-03-01T06:12:40;19.38;;;9.20;;
29854;SDS011;16733;48.738;9.106;2023-03-01T06:15:07;19.42;;;9.07;;
29854;SDS011;16733;48.738;9.106;2023-03-01T06:17:35;19.30;;;8.82;;
29854;SDS011;16733;48.738;9.106;2023-03-01T06:20:04;17.40;;;9.30;;
29854;SDS011;16733;48.738;9.106;2023-03-01T06:22:32;21.20;;;9.68;;
29854;SDS011;16733;48.738;9.106;2023-03-01T06:24:58;19.02;;;8.30;;
29854;SDS011;16733;48.738;9.106;2023-03-01T06:27:23;16.25;;;8.45;;
29854;SDS011;16733;48.738;9.106;2023-03-01T06:29:49;18.85;;;8.93;;
29854;SDS011;16733;48.738;9.106;2023-03-01T06:32:15;17.30;;;8.48;;
29854;SDS011;16733;48.738;9.106;2023-03-01T06:34:40;19.08;;;8.27;;
29854;SDS011;16733;48.738;9.106;2023-03-01T06:37:06;21.63;;;9.27;;
29854;SDS011;16733;48.738;9.106;2023-03-01T06:39:35;19.90;;;9.63;;
29854;SDS011;16733;48.738;9.106;2023-03-01T06:42:01;17.63;;;9.00;;
29854;SDS011;16733;48.738;9.106;2023-03-01T06:44:27;19.98;;;9.32;;
29854;SDS011;16733;48.738;9.106;2023-03-01T06:46:53;24.30;;;9.63;;
29854;SDS011;16733;48.738;9.106;2023-03-01T06:49:19;21.15;;;9.35;;
29854;SDS011;16733;48.738;9.106;2023-03-01T06:51:44;30.15;;;9.43;;
29854;SDS011;16733;48.738;9.106;2023-03-01T06:54:11;20.92;;;9.27;;
29854;SDS011;16733;48.738;9.106;2023-03-01T06:56:37;25.70;;;11.02;;
29854;SDS011;16733;48.738;9.106;2023-03-01T06:59:02;28.83;;;9.82;;
29854;SDS011;16733;48.738;9.106;2023-03-01T07:01:30;16.88;;;8.48;;
29854;SDS011;16733;48.738;9.106;2023-03-01T07:03:56;20.67;;;10.35;;
29854;SDS011;16733;48.738;9.106;2023-03-01T07:06:22;22.70;;;9.98;;
29854;SDS011;16733;48.738;9.106;2023-03-01T07:08:48;25.88;;;8.55;;
29854;SDS011;16733;48.738;9.106;2023-03-01T07:11:14;17.92;;;9.32;;
29854;SDS011;16733;48.738;9.106;2023-03-01T07:13:40;25.70;;;9.05;;
29854;SDS011;16733;48.738;9.106;2023-03-01T07:16:06;24.38;;;10.38;;
29854;SDS011;16733;48.738;9.106;2023-03-01T07:18:32;22.73;;;9.77;;
29854;SDS011;16733;48.738;9.106;2023-03-01T07:21:03;23.88;;;11.85;;
29854;SDS011;16733;48.738;9.106;2023-03-01T07:23:29;22.20;;;9.15;;
29854;SDS011;16733;48.738;9.106;2023-03-01T07:25:55;24.15;;;12.50;;
29854;SDS011;16733;48.738;9.106;2023-03-01T07:28:22;18.15;;;8.88;;
29854;SDS011;16733;48.738;9.106;2023-03-01T07:30:48;20.17;;;8.60;;
29854;SDS011;16733;48.738;9.106;2023-03-01T07:33:14;26.90;;;10.60;;
29854;SDS011;16733;48.738;9.106;2023-03-01T07:35:39;23.15;;;10.85;;
29854;SDS011;16733;48.738;9.106;2023-03-01T07:38:05;23.13;;;11.05;;
29854;SDS011;16733;48.738;9.106;2023-03-01T07:40:31;27.20;;;10.70;;
29854;SDS011;16733;48.738;9.106;2023-03-01T07:42:57;23.08;;;9.95;;
29854;SDS011;16733;48.738;9.106;2023-03-01T07:45:23;25.10;;;12.02;;
29854;SDS011;16733;48.738;9.106;2023-03-01T07:47:50;30.33;;;11.05;;
29854;SDS011;16733;48.738;9.106;2023-03-01T07:50:16;21.95;;;10.70;;
29854;SDS011;16733;48.738;9.106;2023-03-01T07:52:44;17.55;;;9.27;;
29854;SDS011;16733;48.738;9.106;2023-03-01T07:55:11;23.67;;;9.77;;
29854;SDS011;16733;48.738;9.106;2023-03-01T07:57:37;22.60;;;9.98;;
29854;SDS011;16733;48.738;9.106;2023-03-01T08:00:03;28.40;;;11.30;;
29854;SDS011;16733;48.738;9.106;2023-03-01T08:02:30;26.35;;;11.80;;
29854;SDS011;16733;48.738;9.106;2023-03-01T08:04:56;22.02;;;9.57;;
29854;SDS011;16733;48.738;9.106;2023-03-01T08:07:21;26.67;;;12.90;;
29854;SDS011;16733;48.738;9.106;2023-03-01T08:09:47;20.73;;;10.00;;
29854;SDS011;16733;48.738;9.106;2023-03-01T08:12:12;23.98;;;11.23;;
29854;SDS011;16733;48.738;9.106;2023-03-01T08:14:38;20.35;;;9.27;;
29854;SDS011;16733;48.738;9.106;2023-03-01T08:17:04;21.20;;;9.82;;
29854;SDS011;16733;48.738;9.106;2023-03-01T08:19:29;27.08;;;12.25;;
29854;SDS011;16733;48.738;9.106;2023-03-01T08:21:55;24.63;;;11.27;;
29854;SDS011;16733;48.738;9.106;2023-03-01T08:24:23;19.90;;;10.48;;
29854;SDS011;16733;48.738;9.106;2023-03-01T08:26:49;27.75;;;11.63;;
29854;SDS011;16733;48.738;9.106;2023-03-01T08:29:14;23.58;;;11.13;;
29854;SDS011;16733;48.738;9.106;2023-03-01T08:31:40;22.58;;;10.07;;
29854;SDS011;16733;48.738;9.106;2023-03-01T08:34:11;22.98;;;10.80;;
29854;SDS011;16733;48.738;9.106;2023-03-01T08:36:43;25.15;;;12.10;;
29854;SDS011;16733;48.738;9.106;2023-03-01T08:39:12;24.20;;;11.57;;
29854;SDS011;16733;48.738;9.106;2023-03-01T08:41:39;23.90;;;10.20;;
29854;SDS011;16733;48.738;9.106;2023-03-01T08:44:05;33.50;;;12.35;;
29854;SDS011;16733;48.738;9.106;2023-03-01T08:46:35;32.00;;;11.82;;
29854;SDS011;16733;48.738;9.106;2023-03-01T08:49:06;20.98;;;9.95;;
29854;SDS011;16733;48.738;9.106;2023-03-01T08:51:33;22.23;;;10.20;;
29854;SDS011;16733;48.738;9.106;2023-03-01T08:54:05;23.10;;;10.02;;
29854;SDS011;16733;48.738;9.106;2023-03-01T08:56:32;23.15;;;11.38;;
29854;SDS011;16733;48.738;9.106;2023-03-01T08:58:58;22.88;;;10.68;;
29854;SDS011;16733;48.738;9.106;2023-03-01T09:01:24;23.50;;;11.35;;
29854;SDS011;16733;48.738;9.106;2023-03-01T09:03:50;23.10;;;11.45;;
29854;SDS011;16733;48.738;9.106;2023-03-01T09:06:16;21.50;;;10.82;;
29854;SDS011;16733;48.738;9.106;2023-03-01T09:08:42;25.83;;;11.57;;
29854;SDS011;16733;48.738;9.106;2023-03-01T09:11:11;22.95;;;10.82;;
29854;SDS011;16733;48.738;9.106;2023-03-01T09:13:38;23.63;;;10.63;;
29854;SDS011;16733;48.738;9.106;2023-03-01T09:16:05;23.42;;;11.30;;
29854;SDS011;16733;48.738;9.106;2023-03-01T09:18:32;29.05;;;13.02;;
29854;SDS011;16733;48.738;9.106;2023-03-01T09:21:09;22.92;;;11.63;;
29854;SDS011;16733;48.738;9.106;2023-03-01T09:23:40;29.38;;;12.18;;
29854;SDS011;16733;48.738;9.106;2023-03-01T09:26:14;25.77;;;12.15;;
29854;SDS011;16733;48.738;9.106;2023-03-01T09:31:10;19.92;;;10.07;;
29854;SDS011;16733;48.738;9.106;2023-03-01T09:33:37;23.63;;;10.63;;
29854;SDS011;16733;48.738;9.106;2023-03-01T09:36:05;28.20;;;11.63;;
29854;SDS011;16733;48.738;9.106;2023-03-01T09:38:33;27.35;;;11.93;;
29854;SDS011;16733;48.738;9.106;2023-03-01T09:40:59;28.83;;;11.90;;
29854;SDS011;16733;48.738;9.106;2023-03-01T09:46:01;26.55;;;11.38;;
29854;SDS011;16733;48.738;9.106;2023-03-01T09:48:30;19.45;;;10.27;;
29854;SDS011;16733;48.738;9.106;2023-03-01T09:51:05;23.90;;;11.90;;
29854;SDS011;16733;48.738;9.106;2023-03-01T10:09:40;25.55;;;12.70;;
29854;SDS011;16733;48.738;9.106;2023-03-01T10:12:10;24.40;;;11.68;;
29854;SDS011;16733;48.738;9.106;2023-03-01T10:20:33;23.65;;;11.70;;
29854;SDS011;16733;48.738;9.106;2023-03-01T10:22:58;22.98;;;12.13;;
29854;SDS011;16733;48.738;9.106;2023-03-01T10:25:30;25.20;;;12.75;;
29854;SDS011;16733;48.738;9.106;2023-03-01T10:28:39;24.42;;;11.73;;
29854;SDS011;16733;48.738;9.106;2023-03-01T10:31:09;20.02;;;10.57;;
29854;SDS011;16733;48.738;9.106;2023-03-01T10:33:38;22.38;;;11.32;;
29854;SDS011;16733;48.738;9.106;2023-03-01T10:36:07;19.38;;;10.40;;
29854;SDS011;16733;48.738;9.106;2023-03-01T10:41:19;23.05;;;11.18;;
29854;SDS011;16733;48.738;9.106;2023-03-01T10:43:50;23.42;;;10.65;;
29854;SDS011;16733;48.738;9.106;2023-03-01T10:51:38;22.83;;;11.80;;
29854;SDS011;16733;48.738;9.106;2023-03-01T10:54:06;21.05;;;11.52;;
29854;SDS011;16733;48.738;9.106;2023-03-01T10:56:58;22.88;;;11.38;;
29854;SDS011;16733;48.738;9.106;2023-03-01T10:59:33;25.48;;;11.23;;
29854;SDS011;16733;48.738;9.106;2023-03-01T11:05:23;25.80;;;11.55;;
29854;SDS011;16733;48.738;9.106;2023-03-01T11:10:21;25.80;;;10.43;;
29854;SDS011;16733;48.738;9.106;2023-03-01T11:12:50;25.83;;;10.57;;
29854;SDS011;16733;48.738;9.106;2023-03-01T11:15:30;21.42;;;9.75;;
29854;SDS011;16733;48.738;9.106;2023-03-01T11:17:56;23.42;;;12.07;;
29854;SDS011;16733;48.738;9.106;2023-03-01T11:20:35;24.17;;;11.55;;
29854;SDS011;16733;48.738;9.106;2023-03-01T11:23:03;20.58;;;10.80;;
29854;SDS011;16733;48.738;9.106;2023-03-01T11:25:37;27.48;;;11.35;;
29854;SDS011;16733;48.738;9.106;2023-03-01T11:28:07;22.92;;;11.13;;
29854;SDS011;16733;48.738;9.106;2023-03-01T11:38:39;19.77;;;10.35;;
29854;SDS011;16733;48.738;9.106;2023-03-01T12:03:12;19.08;;;10.98;;
29854;SDS011;16733;48.738;9.106;2023-03-01T12:06:04;20.30;;;11.65;;
29854;SDS011;16733;48.738;9.106;2023-03-01T12:27:47;23.02;;;10.32;;
29854;SDS011;16733;48.738;9.106;2023-03-01T12:50:17;22.52;;;10.20;;
29854;SDS011;16733;48.738;9.106;2023-03-01T12:52:47;23.20;;;10.35;;
29854;SDS011;16733;48.738;9.106;2023-03-01T13:06:10;17.92;;;9.07;;
29854;SDS011;16733;48.738;9.106;2023-03-01T13:09:10;16.67;;;9.15;;
29854;SDS011;16733;48.738;9.106;2023-03-01T13:11:59;20.73;;;9.52;;
29854;SDS011;16733;48.738;9.106;2023-03-01T13:16:51;21.63;;;10.02;;
29854;SDS011;16733;48.738;9.106;2023-03-01T13:19:22;18.83;;;10.20;;
29854;SDS011;16733;48.738;9.106;2023-03-01T13:21:54;20.20;;;9.63;;
29854;SDS011;16733;48.738;9.106;2023-03-01T13:24:32;21.50;;;10.48;;
29854;SDS011;16733;48.738;9.106;2023-03-01T13:34:46;21.50;;;10.70;;
29854;SDS011;16733;48.738;9.106;2023-03-01T13:37:24;14.68;;;8.88;;
29854;SDS011;16733;48.738;9.106;2023-03-01T13:39:58;20.38;;;10.48;;
29854;SDS011;16733;48.738;9.106;2023-03-01T13:42:31;17.10;;;8.98;;
29854;SDS011;16733;48.738;9.106;2023-03-01T13:47:40;17.33;;;8.82;;
29854;SDS011;16733;48.738;9.106;2023-03-01T13:50:15;20.33;;;10.57;;
29854;SDS011;16733;48.738;9.106;2023-03-01T13:53:03;23.38;;;11.00;;
29854;SDS011;16733;48.738;9.106;2023-03-01T13:58:18;23.50;;;11.13;;
29854;SDS011;16733;48.738;9.106;2023-03-01T14:00:57;21.38;;;9.90;;
29854;SDS011;16733;48.738;9.106;2023-03-01T14:03:24;18.92;;;10.40;;
29854;SDS011;16733;48.738;9.106;2023-03-01T14:06:24;20.00;;;11.38;;
29854;SDS011;16733;48.738;9.106;2023-03-01T14:08:46;16.85;;;9.70;;
29854;SDS011;16733;48.738;9.106;2023-03-01T14:16:25;21.50;;;11.10;;
29854;SDS011;16733;48.738;9.106;2023-03-01T14:19:04;22.17;;;12.60;;
29854;SDS011;16733;48.738;9.106;2023-03-01T14:21:44;22.95;;;11.95;;
29854;SDS011;16733;48.738;9.106;2023-03-01T14:24:18;23.95;;;12.00;;
29854;SDS011;16733;48.738;9.106;2023-03-01T14:26:46;20.25;;;10.75;;
29854;SDS011;16733;48.738;9.106;2023-03-01T14:29:23;19.00;;;11.85;;
29854;SDS011;16733;48.738;9.106;2023-03-01T14:32:07;18.80;;;9.98;;
29854;SDS011;16733;48.738;9.106;2023-03-01T14:34:36;20.70;;;12.80;;
29854;SDS011;16733;48.738;9.106;2023-03-01T14:37:11;22.52;;;10.40;;
29854;SDS011;16733;48.738;9.106;2023-03-01T14:39:43;23.33;;;13.63;;
29854;SDS011;16733;48.738;9.106;2023-03-01T14:42:09;22.40;;;11.95;;
29854;SDS011;16733;48.738;9.106;2023-03-01T14:44:34;21.42;;;10.88;;
29854;SDS011;16733;48.738;9.106;2023-03-01T14:47:02;24.77;;;12.90;;
29854;SDS011;16733;48.738;9.106;2023-03-01T14:49:30;26.30;;;13.27;;
29854;SDS011;16733;48.738;9.106;2023-03-01T14:52:02;23.90;;;10.63;;
29854;SDS011;16733;48.738;9.106;2023-03-01T14:54:39;20.48;;;12.95;;
29854;SDS011;16733;48.738;9.106;2023-03-01T15:00:00;20.33;;;11.13;;
29854;SDS011;16733;48.738;9.106;2023-03-01T15:02:29;22.15;;;11.63;;
29854;SDS011;16733;48.738;9.106;2023-03-01T15:04:57;22.92;;;12.82;;
29854;SDS011;16733;48.738;9.106;2023-03-01T15:07:33;22.63;;;12.00;;
29854;SDS011;16733;48.738;9.106;2023-03-01T15:12:34;21.10;;;11.18;;
29854;SDS011;16733;48.738;9.106;2023-03-01T15:15:01;23.35;;;11.43;;
29854;SDS011;16733;48.738;9.106;2023-03-01T15:18:06;20.92;;;11.45;;
29854;SDS011;16733;48.738;9.106;2023-03-01T15:20:43;26.60;;;11.82;;
29854;SDS011;16733;48.738;9.106;2023-03-01T15:23:28;21.83;;;11.68;;
29854;SDS011;16733;48.738;9.106;2023-03-01T15:25:55;26.40;;;12.23;;
29854;SDS011;16733;48.738;9.106;2023-03-01T15:28:26;20.77;;;11.55;;
29854;SDS011;16733;48.738;9.106;2023-03-01T15:31:04;21.20;;;12.13;;
29854;SDS011;16733;48.738;9.106;2023-03-01T15:33:43;19.90;;;11.73;;
29854;SDS011;16733;48.738;9.106;2023-03-01T15:36:36;21.67;;;10.90;;
29854;SDS011;16733;48.738;9.106;2023-03-01T15:41:55;20.70;;;10.85;;
29854;SDS011;16733;48.738;9.106;2023-03-01T15:44:29;22.63;;;11.25;;
29854;SDS011;16733;48.738;9.106;2023-03-01T15:49:55;24.50;;;11.60;;
29854;SDS011;16733;48.738;9.106;2023-03-01T15:52:23;30.50;;;11.23;;
29854;SDS011;16733;48.738;9.106;2023-03-01T15:54:54;22.00;;;11.32;;
29854;SDS011;16733;48.738;9.106;2023-03-01T15:57:24;22.15;;;11.35;;
29854;SDS011;16733;48.738;9.106;2023-03-01T15:59:50;24.17;;;12.25;;
29854;SDS011;16733;48.738;9.106;2023-03-01T16:02:16;23.63;;;11.77;;
29854;SDS011;16733;48.738;9.106;2023-03-01T16:04:41;18.05;;;10.05;;
29854;SDS011;16733;48.738;9.106;2023-03-01T16:07:08;21.70;;;11.73;;
29854;SDS011;16733;48.738;9.106;2023-03-01T16:09:34;29.02;;;11.65;;
29854;SDS011;16733;48.738;9.106;2023-03-01T16:12:00;24.20;;;11.57;;
29854;SDS011;16733;48.738;9.106;2023-03-01T16:14:26;22.23;;;11.27;;
29854;SDS011;16733;48.738;9.106;2023-03-01T16:16:52;20.05;;;10.90;;
29854;SDS011;16733;48.738;9.106;2023-03-01T16:19:18;20.67;;;11.32;;
29854;SDS011;16733;48.738;9.106;2023-03-01T16:21:43;26.52;;;11.63;;
29854;SDS011;16733;48.738;9.106;2023-03-01T16:24:13;24.33;;;11.88;;
29854;SDS011;16733;48.738;9.106;2023-03-01T16:26:39;22.95;;;11.63;;
29854;SDS011;16733;48.738;9.106;2023-03-01T16:29:05;21.45;;;10.93;;
29854;SDS011;16733;48.738;9.106;2023-03-01T16:31:30;20.88;;;10.40;;
29854;SDS011;16733;48.738;9.106;2023-03-01T16:33:58;22.80;;;10.25;;
29854;SDS011;16733;48.738;9.106;2023-03-01T16:36:25;18.73;;;10.30;;
29854;SDS011;16733;48.738;9.106;2023-03-01T16:38:53;20.40;;;10.15;;
29854;SDS011;16733;48.738;9.106;2023-03-01T16:41:20;18.50;;;10.50;;
29854;SDS011;16733;48.738;9.106;2023-03-01T16:43:47;22.52;;;10.57;;
29854;SDS011;16733;48.738;9.106;2023-03-01T16:46:14;17.55;;;9.27;;
29854;SDS011;16733;48.738;9.106;2023-03-01T16:48:45;23.73;;;11.82;;
29854;SDS011;16733;48.738;9.106;2023-03-01T16:51:11;19.83;;;10.57;;
29854;SDS011;16733;48.738;9.106;2023-03-01T16:53:37;24.15;;;10.27;;
29854;SDS011;16733;48.738;9.106;2023-03-01T16:56:04;20.83;;;10.73;;
29854;SDS011;16733;48.738;9.106;2023-03-01T16:58:32;20.75;;;10.32;;
29854;SDS011;16733;48.738;9.106;2023-03-01T17:01:03;27.90;;;10.07;;
29854;SDS011;16733;48.738;9.106;2023-03-01T17:03:32;26.13;;;10.48;;
29854;SDS011;16733;48.738;9.106;2023-03-01T17:06:02;21.83;;;10.98;;
29854;SDS011;16733;48.738;9.106;2023-03-01T17:08:29;23.88;;;10.18;;
29854;SDS011;16733;48.738;9.106;2023-03-01T17:10:54;20.08;;;9.82;;
29854;SDS011;16733;48.738;9.106;2023-03-01T17:13:20;21.75;;;10.45;;
29854;SDS011;16733;48.738;9.106;2023-03-01T17:15:48;18.42;;;9.95;;
29854;SDS011;16733;48.738;9.106;2023-03-01T17:18:14;19.40;;;9.52;;
29854;SDS011;16733;48.738;9.106;2023-03-01T17:20:39;20.58;;;10.10;;
29854;SDS011;16733;48.738;9.106;2023-03-01T17:23:05;19.45;;;10.32;;
29854;SDS011;16733;48.738;9.106;2023-03-01T17:25:31;19.77;;;9.40;;
29854;SDS011;16733;48.738;9.106;2023-03-01T17:27:57;20.75;;;10.00;;